createdAt,value
2018-04-19T00:01:58.855Z,4.90
2018-04-19T00:04:26.615Z,4.70
2018-04-19T00:06:54.377Z,5.10
2018-04-19T00:09:22.046Z,5.00
2018-04-19T00:11:49.905Z,4.77
2018-04-19T00:14:17.449Z,5.33
2018-04-19T00:16:45.232Z,5.40
2018-04-19T00:19:12.804Z,5.00
2018-04-19T00:21:40.659Z,5.97
2018-04-19T00:24:08.164Z,5.47
2018-04-19T00:26:35.728Z,5.30
2018-04-19T00:29:03.568Z,5.40
2018-04-19T00:31:31.825Z,5.53
2018-04-19T00:33:59.480Z,5.77
2018-04-19T00:36:27.260Z,5.93
2018-04-19T00:38:55.160Z,5.60
2018-04-19T00:41:22.880Z,5.63
2018-04-19T00:43:50.649Z,5.87
2018-04-19T00:46:18.926Z,5.50
2018-04-19T00:48:46.683Z,5.30
2018-04-19T00:51:14.356Z,5.77
2018-04-19T00:53:42.416Z,5.63
2018-04-19T00:56:10.095Z,5.33
2018-04-19T00:58:38.764Z,5.43
2018-04-19T01:01:06.840Z,5.63
2018-04-19T01:03:34.420Z,5.57
2018-04-19T01:06:02.680Z,6.03
2018-04-19T01:08:30.448Z,5.60
2018-04-19T01:10:58.505Z,5.10
2018-04-19T01:13:25.988Z,5.13
2018-04-19T01:15:54.556Z,5.60
2018-04-19T01:18:22.223Z,5.70
2018-04-19T01:20:49.791Z,5.90
2018-04-19T01:23:17.296Z,5.63
2018-04-19T01:25:45.108Z,5.87
2018-04-19T01:28:13.585Z,5.93
2018-04-19T01:30:41.148Z,5.80
2018-04-19T01:33:09.259Z,6.20
2018-04-19T01:35:48.869Z,5.83
2018-04-19T01:38:17.344Z,6.43
2018-04-19T01:40:44.804Z,6.27
2018-04-19T01:43:12.461Z,6.03
2018-04-19T01:45:40.639Z,6.43
2018-04-19T01:48:08.214Z,7.20
2018-04-19T01:50:35.857Z,6.10
2018-04-19T01:53:03.716Z,7.07
2018-04-19T01:55:31.280Z,6.80
2018-04-19T01:57:58.949Z,6.57
2018-04-19T02:00:26.677Z,7.27
2018-04-19T02:02:54.269Z,7.00
2018-04-19T02:05:21.780Z,6.40
2018-04-19T02:07:49.493Z,6.27
2018-04-19T02:10:17.132Z,6.57
2018-04-19T02:12:45.116Z,6.10
2018-04-19T02:15:12.736Z,6.73
2018-04-19T02:17:40.207Z,6.70
2018-04-19T02:20:08.388Z,7.30
2018-04-19T02:22:35.854Z,7.03
2018-04-19T02:25:03.317Z,7.07
2018-04-19T02:27:31.092Z,6.87
2018-04-19T02:29:58.584Z,7.20
2018-04-19T02:32:26.312Z,6.87
2018-04-19T02:34:54.079Z,7.23
2018-04-19T02:37:21.638Z,6.67
2018-04-19T02:39:49.961Z,7.10
2018-04-19T02:42:17.676Z,7.53
2018-04-19T02:44:45.445Z,7.27
2018-04-19T02:47:13.616Z,6.83
2018-04-19T02:49:41.191Z,6.40
2018-04-19T02:52:09.452Z,6.63
2018-04-19T02:54:37.115Z,7.03
2018-04-19T02:57:04.680Z,7.53
2018-04-19T02:59:32.236Z,7.60
2018-04-19T03:02:00.010Z,7.80
2018-04-19T03:04:27.768Z,7.87
2018-04-19T03:06:55.438Z,8.03
2018-04-19T03:09:23.757Z,7.80
2018-04-19T03:11:51.580Z,7.53
2018-04-19T03:14:19.332Z,8.20
2018-04-19T03:16:46.791Z,7.63
2018-04-19T03:19:14.349Z,8.00
2018-04-19T03:21:41.961Z,7.77
2018-04-19T03:24:09.476Z,8.03
2018-04-19T03:26:37.236Z,8.10
2018-04-19T03:29:04.821Z,8.33
2018-04-19T03:31:33.044Z,8.37
2018-04-19T03:34:00.548Z,8.87
2018-04-19T03:36:29.013Z,9.17
2018-04-19T03:38:56.581Z,8.57
2018-04-19T03:41:24.543Z,8.10
2018-04-19T03:43:52.206Z,7.53
2018-04-19T03:46:19.972Z,8.37
2018-04-19T03:48:47.638Z,7.80
2018-04-19T03:51:15.196Z,7.53
2018-04-19T03:53:43.265Z,8.23
2018-04-19T03:56:10.740Z,7.93
2018-04-19T03:58:38.996Z,8.10
2018-04-19T04:01:06.803Z,8.90
2018-04-19T04:03:35.093Z,9.00
2018-04-19T04:06:02.704Z,10.80
2018-04-19T04:08:30.337Z,9.80
2018-04-19T04:10:57.909Z,9.30
2018-04-19T04:13:25.468Z,9.77
2018-04-19T04:15:53.246Z,9.07
2018-04-19T04:18:32.784Z,9.83
2018-04-19T04:21:22.881Z,9.03
2018-04-19T04:23:53.091Z,10.43
2018-04-19T04:26:20.864Z,9.77
2018-04-19T04:28:49.104Z,10.47
2018-04-19T04:31:16.635Z,9.07
2018-04-19T04:33:44.565Z,9.20
2018-04-19T04:36:12.144Z,9.43
2018-04-19T04:38:40.500Z,9.03
2018-04-19T04:41:08.571Z,8.97
2018-04-19T04:43:36.048Z,9.73
2018-04-19T04:46:04.278Z,9.40
2018-04-19T04:48:31.810Z,10.70
2018-04-19T04:50:59.528Z,8.93
2018-04-19T04:53:27.205Z,9.80
2018-04-19T04:55:55.676Z,9.73
2018-04-19T04:58:23.333Z,9.20
2018-04-19T05:00:51.002Z,9.80
2018-04-19T05:03:19.477Z,10.13
2018-04-19T05:05:46.986Z,9.33
2018-04-19T05:08:14.448Z,9.67
2018-04-19T05:10:42.061Z,9.63
2018-04-19T05:13:10.385Z,10.47
2018-04-19T05:15:38.200Z,11.23
2018-04-19T05:18:06.269Z,9.40
2018-04-19T05:20:33.869Z,10.17
2018-04-19T05:23:01.904Z,10.67
2018-04-19T05:25:30.271Z,10.57
2018-04-19T05:27:57.736Z,9.67
2018-04-19T05:30:25.317Z,10.20
2018-04-19T05:32:53.980Z,9.57
2018-04-19T05:35:21.552Z,8.90
2018-04-19T05:37:50.021Z,9.23
2018-04-19T05:40:17.889Z,10.17
2018-04-19T05:42:46.212Z,9.83
2018-04-19T05:45:13.681Z,8.67
2018-04-19T05:47:41.260Z,8.90
2018-04-19T05:50:08.828Z,8.40
2018-04-19T05:52:36.300Z,8.77
2018-04-19T05:55:04.268Z,7.60
2018-04-19T05:57:31.819Z,8.17
2018-04-19T05:59:59.309Z,8.17
2018-04-19T06:02:27.585Z,8.70
2018-04-19T06:04:55.919Z,7.83
2018-04-19T06:07:23.388Z,8.43
2018-04-19T06:09:50.859Z,8.57
2018-04-19T06:12:19.040Z,8.10
2018-04-19T06:14:46.593Z,7.53
2018-04-19T06:17:14.156Z,6.80
2018-04-19T06:19:41.758Z,7.37
2018-04-19T06:22:09.607Z,7.13
2018-04-19T06:24:37.867Z,7.60
2018-04-19T06:27:06.105Z,7.10
2018-04-19T06:29:33.627Z,7.23
2018-04-19T06:32:01.176Z,7.13
2018-04-19T06:34:29.536Z,6.33
2018-04-19T06:36:57.190Z,6.50
2018-04-19T06:39:24.981Z,7.63
2018-04-19T06:41:53.546Z,7.33
2018-04-19T06:44:21.597Z,6.63
2018-04-19T06:46:49.304Z,8.40
2018-04-19T06:49:16.945Z,7.93
2018-04-19T06:51:45.268Z,8.17
2018-04-19T06:54:12.736Z,7.60
2018-04-19T06:56:40.336Z,9.77
2018-04-19T06:59:08.820Z,8.30
2018-04-19T07:01:36.480Z,9.07
2018-04-19T07:04:04.964Z,10.63
2018-04-19T07:06:33.253Z,8.93
2018-04-19T07:09:00.696Z,8.07
2018-04-19T07:11:28.230Z,9.37
2018-04-19T07:13:55.917Z,8.23
2018-04-19T07:16:23.576Z,8.83
2018-04-19T07:18:52.156Z,8.37
2018-04-19T07:21:19.724Z,8.30
2018-04-19T07:23:47.792Z,8.33
2018-04-19T07:26:15.556Z,7.83
2018-04-19T07:28:43.020Z,7.90
2018-04-19T07:31:11.312Z,8.23
2018-04-19T07:33:38.929Z,7.97
2018-04-19T07:36:06.611Z,8.03
2018-04-19T07:38:34.584Z,7.83
2018-04-19T07:41:02.348Z,9.77
2018-04-19T07:43:30.113Z,7.10
2018-04-19T07:45:57.797Z,8.50
2018-04-19T07:48:26.057Z,9.37
2018-04-19T07:50:54.471Z,8.83
2018-04-19T07:53:22.064Z,9.00
2018-04-19T07:55:49.652Z,8.47
2018-04-19T07:58:17.321Z,8.53
2018-04-19T08:00:46.101Z,8.43
2018-04-19T08:03:13.680Z,8.67
2018-04-19T08:05:42.132Z,7.93
2018-04-19T08:08:09.904Z,9.03
2018-04-19T08:10:38.159Z,7.30
2018-04-19T08:13:05.629Z,7.77
2018-04-19T08:15:33.292Z,8.30
2018-04-19T08:18:00.865Z,7.93
2018-04-19T08:20:29.240Z,7.97
2018-04-19T08:22:57.821Z,7.40
2018-04-19T08:25:25.304Z,7.77
2018-04-19T08:27:52.884Z,7.60
2018-04-19T08:30:20.604Z,7.37
2018-04-19T08:32:48.161Z,6.93
2018-04-19T08:35:15.640Z,6.87
2018-04-19T08:37:44.408Z,6.30
2018-04-19T08:40:12.073Z,6.33
2018-04-19T08:42:39.735Z,6.27
2018-04-19T08:45:08.528Z,5.93
2018-04-19T08:47:37.665Z,5.60
2018-04-19T08:50:05.128Z,5.43
2018-04-19T08:52:32.952Z,5.50
2018-04-19T08:55:01.185Z,4.93
2018-04-19T08:57:28.676Z,5.27
2018-04-19T08:59:56.436Z,5.23
2018-04-19T09:02:24.097Z,5.57
2018-04-19T09:04:51.761Z,5.20
2018-04-19T09:07:19.734Z,4.80
2018-04-19T09:09:48.016Z,4.20
2018-04-19T09:12:16.276Z,4.97
2018-04-19T09:14:43.812Z,5.00
2018-04-19T09:17:11.410Z,4.20
2018-04-19T09:19:39.976Z,4.70
2018-04-19T09:22:07.640Z,3.80
2018-04-19T09:24:35.449Z,3.83
2018-04-19T09:27:03.009Z,3.80
2018-04-19T09:29:30.731Z,3.83
2018-04-19T09:31:58.392Z,3.70
2018-04-19T09:34:25.944Z,3.70
2018-04-19T09:36:53.613Z,3.27
2018-04-19T09:39:21.583Z,3.47
2018-04-19T09:41:49.149Z,3.43
2018-04-19T09:44:16.904Z,3.63
2018-04-19T09:46:44.613Z,3.70
2018-04-19T09:49:12.431Z,3.30
2018-04-19T09:51:39.894Z,3.80
2018-04-19T09:54:07.640Z,3.00
2018-04-19T09:56:35.112Z,3.17
2018-04-19T09:59:11.888Z,3.30
2018-04-19T10:01:45.128Z,3.40
2018-04-19T10:04:13.587Z,3.13
2018-04-19T10:06:41.804Z,3.10
2018-04-19T10:09:09.404Z,3.00
2018-04-19T10:11:38.388Z,3.00
2018-04-19T10:14:06.972Z,2.77
2018-04-19T10:18:58.404Z,3.00
2018-04-19T10:21:26.060Z,3.00
2018-04-19T10:23:54.227Z,2.83
2018-04-19T10:26:21.710Z,2.83
2018-04-19T10:28:50.801Z,2.20
2018-04-19T10:31:19.181Z,2.30
2018-04-19T10:33:46.959Z,2.17
2018-04-19T10:36:15.251Z,2.30
2018-04-19T10:38:42.816Z,2.43
2018-04-19T10:41:10.404Z,2.03
2018-04-19T10:43:37.945Z,2.27
2018-04-19T10:46:05.460Z,2.10
2018-04-19T10:48:33.732Z,1.97
2018-04-19T10:51:01.804Z,2.23
2018-04-19T10:53:29.664Z,2.23
2018-04-19T10:55:57.431Z,1.83
2018-04-19T10:58:25.296Z,1.70
2018-04-19T11:00:52.917Z,1.87
2018-04-19T11:03:21.161Z,1.80
2018-04-19T11:05:49.724Z,1.67
2018-04-19T11:08:17.192Z,1.70
2018-04-19T11:10:45.559Z,1.73
2018-04-19T11:13:13.220Z,1.80
2018-04-19T11:15:41.437Z,2.10
2018-04-19T11:18:09.001Z,2.10
2018-04-19T11:20:36.648Z,2.10
2018-04-19T11:23:04.993Z,2.60
2018-04-19T11:25:32.452Z,2.40
2018-04-19T11:27:59.912Z,2.20
2018-04-19T11:30:28.190Z,2.30
2018-04-19T11:32:56.580Z,2.83
2018-04-19T11:35:25.153Z,3.60
2018-04-19T11:37:53.625Z,3.30
2018-04-19T11:40:21.093Z,3.33
2018-04-19T11:42:49.365Z,3.70
2018-04-19T11:45:17.781Z,3.53
2018-04-19T11:47:45.349Z,3.87
2018-04-19T11:50:12.808Z,3.87
2018-04-19T11:52:41.036Z,4.07
2018-04-19T11:55:08.707Z,4.23
2018-04-19T11:57:37.045Z,4.40
2018-04-19T12:00:04.624Z,4.20
2018-04-19T12:02:32.304Z,4.17
2018-04-19T12:05:00.980Z,4.10
2018-04-19T12:07:28.543Z,4.67
2018-04-19T12:09:56.105Z,4.50
2018-04-19T12:12:23.569Z,4.07
2018-04-19T12:14:52.150Z,4.63
2018-04-19T12:17:19.908Z,4.63
2018-04-19T12:19:47.476Z,5.17
2018-04-19T12:22:16.052Z,4.40
2018-04-19T12:24:43.602Z,4.50
2018-04-19T12:27:11.230Z,3.93
2018-04-19T12:29:38.692Z,4.67
2018-04-19T12:32:06.157Z,4.43
2018-04-19T12:34:33.857Z,5.33
2018-04-19T12:37:01.444Z,4.80
2018-04-19T12:39:29.129Z,5.03
2018-04-19T12:41:56.944Z,5.00
2018-04-19T12:44:24.604Z,5.70
2018-04-19T12:46:52.161Z,5.10
2018-04-19T12:49:19.659Z,5.50
2018-04-19T12:51:47.535Z,5.60
2018-04-19T12:54:15.049Z,5.37
2018-04-19T12:56:42.889Z,5.33
2018-04-19T12:59:10.355Z,5.43
2018-04-19T13:01:37.924Z,5.30
2018-04-19T13:04:05.904Z,5.07
2018-04-19T13:06:34.150Z,4.90
2018-04-19T13:09:01.618Z,5.00
2018-04-19T13:11:29.192Z,4.97
2018-04-19T13:13:56.769Z,5.47
2018-04-19T13:16:25.232Z,5.13
2018-04-19T13:18:52.896Z,5.00
2018-04-19T13:21:21.477Z,4.90
2018-04-19T13:23:49.548Z,4.83
2018-04-19T13:26:17.121Z,5.10
2018-04-19T13:28:45.353Z,5.40
2018-04-19T13:31:12.946Z,4.90
2018-04-19T13:33:40.520Z,4.70
2018-04-19T13:36:08.884Z,4.53
2018-04-19T13:38:37.357Z,5.33
2018-04-19T13:41:05.249Z,5.90
2018-04-19T13:43:33.708Z,5.40
2018-04-19T13:46:01.686Z,4.87
2018-04-19T13:48:30.057Z,4.57
2018-04-19T13:50:57.770Z,4.50
2018-04-19T13:53:25.684Z,5.10
2018-04-19T13:55:53.160Z,4.70
2018-04-19T13:58:21.421Z,5.23
2018-04-19T14:00:50.104Z,4.50
2018-04-19T14:03:17.869Z,4.83
2018-04-19T14:05:45.841Z,5.03
2018-04-19T14:08:14.244Z,5.23
2018-04-19T14:10:42.496Z,5.17
2018-04-19T14:13:10.047Z,5.37
2018-04-19T14:15:37.507Z,5.13
2018-04-19T14:18:04.969Z,4.73
2018-04-19T14:20:33.953Z,4.17
2018-04-19T14:23:01.524Z,4.60
2018-04-19T14:25:29.081Z,4.67
2018-04-19T14:27:57.448Z,4.50
2018-04-19T14:30:25.020Z,4.43
2018-04-19T14:32:53.263Z,4.20
2018-04-19T14:35:20.952Z,4.20
2018-04-19T14:37:48.788Z,4.20
2018-04-19T14:40:16.486Z,4.57
2018-04-19T14:42:45.060Z,4.10
2018-04-19T14:45:12.824Z,4.10
2018-04-19T14:47:40.489Z,4.30
2018-04-19T14:50:08.154Z,4.00
2018-04-19T14:52:35.824Z,4.27
2018-04-19T14:55:04.344Z,4.30
2018-04-19T14:57:31.872Z,4.00
2018-04-19T15:00:00.128Z,3.97
2018-04-19T15:02:27.828Z,4.07
2018-04-19T15:04:55.558Z,4.53
2018-04-19T15:07:23.421Z,4.00
2018-04-19T15:09:51.086Z,3.90
2018-04-19T15:12:19.664Z,3.90
2018-04-19T15:14:47.130Z,4.03
2018-04-19T15:17:14.688Z,4.10
2018-04-19T15:19:42.448Z,4.13
2018-04-19T15:22:10.112Z,4.43
2018-04-19T15:24:37.776Z,4.47
2018-04-19T15:27:05.640Z,4.67
2018-04-19T15:29:33.510Z,4.40
2018-04-19T15:32:01.868Z,4.40
2018-04-19T15:34:30.164Z,4.93
2018-04-19T15:36:57.628Z,4.50
2018-04-19T15:39:25.856Z,5.00
2018-04-19T15:41:54.277Z,4.53
2018-04-19T15:44:21.936Z,5.37
2018-04-19T15:46:49.595Z,5.27
2018-04-19T15:49:17.465Z,5.40
2018-04-19T15:51:46.760Z,6.10
2018-04-19T15:54:14.428Z,5.43
2018-04-19T15:56:42.395Z,6.20
2018-04-19T15:59:09.951Z,5.90
2018-04-19T16:01:37.516Z,5.60
2018-04-19T16:04:05.388Z,6.00
2018-04-19T16:06:33.766Z,6.80
2018-04-19T16:09:02.344Z,6.33
2018-04-19T16:11:30.117Z,6.40
2018-04-19T16:13:58.434Z,6.03
2018-04-19T16:16:25.905Z,7.20
2018-04-19T16:18:53.728Z,6.40
2018-04-19T16:21:21.989Z,5.63
2018-04-19T16:23:49.456Z,6.17
2018-04-19T16:26:17.520Z,5.30
2018-04-19T16:28:48.619Z,6.83
2018-04-19T16:31:13.755Z,6.80
2018-04-19T16:33:41.325Z,6.53
2018-04-19T16:36:09.083Z,6.63
2018-04-19T16:38:36.758Z,6.47
2018-04-19T16:41:05.047Z,6.03
2018-04-19T16:43:32.477Z,6.53
2018-04-19T16:46:00.336Z,6.17
2018-04-19T16:48:27.897Z,6.70
2018-04-19T16:50:55.360Z,6.67
2018-04-19T16:53:23.330Z,5.73
2018-04-19T16:55:51.620Z,5.97
2018-04-19T16:58:20.293Z,6.10
2018-04-19T17:00:47.953Z,6.10
2018-04-19T17:03:15.415Z,6.40
2018-04-19T17:05:43.649Z,6.63
2018-04-19T17:08:11.648Z,6.70
2018-04-19T17:10:39.160Z,5.87
2018-04-19T17:13:06.868Z,6.70
2018-04-19T17:15:34.332Z,6.30
2018-04-19T17:18:02.604Z,6.87
2018-04-19T17:20:30.068Z,6.47
2018-04-19T17:22:57.595Z,6.40
2018-04-19T17:25:25.085Z,6.73
2018-04-19T17:27:53.399Z,6.77
2018-04-19T17:30:21.128Z,6.53
2018-04-19T17:32:49.596Z,6.03
2018-04-19T17:35:17.471Z,6.20
2018-04-19T17:37:46.056Z,6.53
2018-04-19T17:40:13.528Z,5.93
2018-04-19T17:42:41.757Z,6.23
2018-04-19T17:45:09.281Z,5.47
2018-04-19T17:47:36.744Z,5.70
2018-04-19T17:50:04.309Z,5.93
2018-04-19T17:52:32.288Z,6.47
2018-04-19T17:54:59.787Z,6.03
2018-04-19T17:57:27.376Z,6.40
2018-04-19T17:59:54.908Z,5.73
2018-04-19T18:02:22.484Z,5.80
2018-04-19T18:04:50.720Z,6.23
2018-04-19T18:07:18.504Z,6.07
2018-04-19T18:09:46.164Z,5.87
2018-04-19T18:12:14.648Z,5.93
2018-04-19T18:14:42.423Z,5.67
2018-04-19T18:17:10.659Z,5.47
2018-04-19T18:19:38.204Z,6.33
2018-04-19T18:22:05.673Z,5.87
2018-04-19T18:24:33.149Z,5.27
2018-04-19T18:27:00.828Z,6.17
2018-04-19T18:29:29.153Z,6.20
2018-04-19T18:31:56.776Z,6.63
2018-04-19T18:34:25.239Z,6.37
2018-04-19T18:36:52.976Z,7.07
2018-04-19T18:39:20.563Z,6.83
2018-04-19T18:41:48.094Z,6.93
2018-04-19T18:44:15.586Z,6.80
2018-04-19T18:46:43.144Z,6.80
2018-04-19T18:49:10.908Z,6.90
2018-04-19T18:51:38.385Z,6.80
2018-04-19T18:54:07.049Z,6.63
2018-04-19T18:56:35.430Z,6.70
2018-04-19T18:59:02.989Z,6.87
2018-04-19T19:01:31.676Z,6.77
2018-04-19T19:04:00.156Z,6.90
2018-04-19T19:06:27.921Z,6.63
2018-04-19T19:08:56.643Z,6.87
2018-04-19T19:11:24.173Z,7.00
2018-04-19T19:13:52.103Z,6.70
2018-04-19T19:16:19.696Z,7.33
2018-04-19T19:19:00.809Z,6.90
2018-04-19T19:21:28.544Z,7.10
2018-04-19T19:23:56.977Z,7.37
2018-04-19T19:26:24.492Z,7.27
2018-04-19T19:28:53.151Z,7.63
2018-04-19T19:31:20.625Z,6.63
2018-04-19T19:33:48.300Z,7.17
2018-04-19T19:36:17.069Z,7.23
2018-04-19T19:38:45.812Z,6.37
2018-04-19T19:41:13.516Z,7.00
2018-04-19T19:43:41.384Z,7.00
2018-04-19T19:46:09.664Z,7.17
2018-04-19T19:48:37.424Z,6.87
2018-04-19T19:51:05.205Z,6.60
2018-04-19T19:53:33.616Z,6.77
2018-04-19T19:56:01.208Z,7.17
2018-04-19T19:58:29.267Z,6.87
2018-04-19T20:00:56.781Z,7.00
2018-04-19T20:03:25.544Z,6.70
2018-04-19T20:05:53.117Z,6.90
2018-04-19T20:08:21.436Z,6.73
2018-04-19T20:10:49.010Z,7.43
2018-04-19T20:13:16.600Z,6.40
2018-04-19T20:15:45.711Z,6.20
2018-04-19T20:18:14.284Z,6.90
2018-04-19T20:20:41.849Z,6.27
2018-04-19T20:23:10.229Z,6.83
2018-04-19T20:25:38.700Z,6.37
2018-04-19T20:28:06.369Z,6.23
2018-04-19T20:30:33.924Z,6.63
2018-04-19T20:33:01.490Z,6.70
2018-04-19T20:35:29.943Z,6.67
2018-04-19T20:37:57.413Z,7.00
2018-04-19T20:40:24.976Z,6.63
2018-04-19T20:42:52.699Z,6.13
2018-04-19T20:45:20.208Z,6.37
2018-04-19T20:47:47.668Z,6.97
2018-04-19T20:50:15.974Z,6.47
2018-04-19T20:52:43.516Z,6.03
2018-04-19T20:55:11.777Z,5.80
2018-04-19T20:57:39.825Z,5.83
2018-04-19T21:00:07.488Z,5.77
2018-04-19T21:02:34.957Z,5.97
2018-04-19T21:05:02.723Z,6.07
2018-04-19T21:07:30.384Z,5.63
2018-04-19T21:09:57.948Z,5.63
2018-04-19T21:12:25.712Z,5.63
2018-04-19T21:14:53.471Z,5.30
2018-04-19T21:17:21.037Z,5.53
2018-04-19T21:19:48.795Z,5.53
2018-04-19T21:22:16.371Z,5.67
2018-04-19T21:24:44.648Z,5.50
2018-04-19T21:27:13.249Z,5.93
2018-04-19T21:29:40.796Z,5.50
2018-04-19T21:32:09.359Z,6.27
2018-04-19T21:34:36.952Z,5.63
2018-04-19T21:37:04.483Z,5.87
2018-04-19T21:39:32.076Z,6.20
2018-04-19T21:41:59.564Z,5.70
2018-04-19T21:44:27.224Z,5.90
2018-04-19T21:46:54.820Z,6.13
2018-04-19T21:49:22.384Z,5.90
2018-04-19T21:51:50.005Z,5.10
2018-04-19T21:54:17.615Z,5.50
2018-04-19T21:56:46.196Z,5.43
2018-04-19T21:59:13.759Z,5.53
2018-04-19T22:01:41.973Z,6.40
2018-04-19T22:04:09.800Z,5.87
2018-04-19T22:06:38.039Z,5.87
2018-04-19T22:09:06.552Z,6.27
2018-04-19T22:11:34.383Z,5.20
2018-04-19T22:14:01.880Z,5.30
2018-04-19T22:16:29.541Z,5.63
2018-04-19T22:18:57.205Z,5.17
2018-04-19T22:21:24.859Z,5.70
2018-04-19T22:23:52.332Z,4.93
2018-04-19T22:26:20.069Z,4.67
2018-04-19T22:28:47.564Z,5.10
2018-04-19T22:31:16.332Z,4.63
2018-04-19T22:33:45.740Z,5.50
2018-04-19T22:36:13.509Z,4.70
2018-04-19T22:38:41.263Z,5.27
2018-04-19T22:41:08.841Z,4.50
2018-04-19T22:43:37.415Z,5.03
2018-04-19T22:46:04.984Z,5.00
2018-04-19T22:48:33.225Z,5.13
2018-04-19T22:51:00.758Z,4.30
2018-04-19T22:53:28.431Z,5.43
2018-04-19T22:55:56.137Z,4.87
2018-04-19T22:58:23.896Z,4.93
2018-04-19T23:00:51.373Z,4.73
2018-04-19T23:03:20.092Z,5.17
2018-04-19T23:05:48.119Z,4.83
2018-04-19T23:08:15.685Z,4.57
2018-04-19T23:10:43.235Z,4.50
2018-04-19T23:13:11.215Z,4.80
2018-04-19T23:15:38.876Z,4.47
2018-04-19T23:18:06.432Z,4.63
2018-04-19T23:20:34.396Z,4.10
2018-04-19T23:23:01.969Z,4.30
2018-04-19T23:25:29.729Z,4.70
2018-04-19T23:27:57.599Z,4.37
2018-04-19T23:30:26.181Z,4.60
2018-04-19T23:32:53.835Z,4.13
2018-04-19T23:35:21.717Z,4.40
2018-04-19T23:37:49.480Z,4.43
2018-04-19T23:40:17.067Z,4.30
2018-04-19T23:42:45.512Z,4.93
2018-04-19T23:45:13.384Z,4.53
2018-04-19T23:47:41.147Z,5.17
2018-04-19T23:50:08.712Z,5.13
2018-04-19T23:52:36.416Z,5.40
2018-04-19T23:55:03.932Z,4.93
2018-04-19T23:57:31.512Z,4.70
